Flight Track Log - Related Links

Times and Time Zones

All times are in EDT time to prevent confusion due to time zone crossing. See the N7ZD flight status page for this flight to view local times or setup timezone preferences in your user account.

Time Position Orientation Groundspeed Altitude Reporting Facility
EDT Latitude Longitude Course Direction KTS MPH feet Rate Location/Type
Sun 07:51:27 PM 32.4517 -80.9058 296° West 159 183 3,100  Level Jacksonville Center
Sun 07:52:27 PM 32.4733 -80.9572 297° West 174 200 3,600 500 Climbing Jacksonville Center
Sun 07:53:00 PM 32.5513 -80.9859 301° West  Level FlightAware Approximate
Sun 07:53:27 PM 32.5011 -81.0008 307° West 174 200 4,100  Level Jacksonville Center
Sun 07:54:00 PM 32.5797 -81.0427 301° West  Level FlightAware Approximate
Sun 07:54:27 PM 32.5206 -81.0447 298° West 163 188 4,500  Level Jacksonville Center
Sun 07:55:00 PM 32.6082 -81.0996 301° West  Level FlightAware Approximate
Sun 07:55:27 PM 32.5378 -81.0889 295° West 158 182 5,000  Level Jacksonville Center
Sun 07:56:00 PM 32.6361 -81.1568 296° West  Level FlightAware Approximate
Sun 07:56:27 PM 32.5594 -81.1353 299° West 158 182 5,400  Level Jacksonville Center
Sun 07:57:27 PM 32.5808 -81.1842 297° West 151 174 5,900 300 Climbing Jacksonville Center
Sun 07:58:27 PM 32.6025 -81.2331 298° West 158 182 6,000 50 Climbing Jacksonville Center
Sun 07:59:27 PM 32.6219 -81.2819 295° West 171 197 6,000  Level Jacksonville Center
Sun 08:00:27 PM 32.6433 -81.3283 299° West 172 198 6,000  Level Jacksonville Center
Sun 08:01:27 PM 32.6669 -81.3847 296° West 172 198 6,000  Level Jacksonville Center
Sun 08:02:27 PM 32.6906 -81.4339 300° West 171 197 6,000  Level Jacksonville Center
Sun 08:03:27 PM 32.7142 -81.4853 299° West 171 197 6,000  Level Jacksonville Center
Sun 08:04:27 PM 32.7356 -81.5392 295° West 176 203 6,000  Level Jacksonville Center
Sun 08:05:27 PM 32.7569 -81.5858 299° West 176 203 6,000  Level Jacksonville Center
Sun 08:06:27 PM 32.7783 -81.6400 295° West 176 203 6,000 28 Level Jacksonville Center
Sun 08:08:00 PM 32.8251 -81.7014 312° West  Level FlightAware Approximate
Sun 08:15:00 PM 32.9834 -82.0217 294° West  Level FlightAware Approximate
Sun 08:16:00 PM 33.0017 -82.0706 294° West  Level FlightAware Approximate
Sun 08:17:00 PM 33.0200 -82.1196 294° West  Level FlightAware Approximate
Sun 08:18:00 PM 33.0383 -82.1686 294° West  Level FlightAware Approximate
Sun 08:19:00 PM 33.0591 -82.2159 304° West  Level FlightAware Approximate
Sun 08:20:00 PM 33.0844 -82.2603 304° West  Level FlightAware Approximate
Sun 08:21:00 PM 33.1096 -82.3047 304° West  Level FlightAware Approximate
Sun 08:22:00 PM 33.1349 -82.3491 304° West  Level FlightAware Approximate
Sun 08:23:00 PM 33.1601 -82.3935 304° West  Level FlightAware Approximate
Sun 08:24:00 PM 33.1853 -82.4380 304° West  Level FlightAware Approximate
Sun 08:25:00 PM 33.2105 -82.4825 304° West  Level FlightAware Approximate
Sun 08:26:00 PM 33.2357 -82.5270 304° West  Level FlightAware Approximate
Sun 08:26:46 PM 33.1333 -82.6500 274° West 157 181 6,600  Level Atlanta TRACON
Sun 08:27:00 PM 33.2609 -82.5715 304° West  Level FlightAware Approximate
Sun 08:27:46 PM 33.1500 -82.7000 292° West 174 200 6,200  Level Atlanta TRACON
Sun 08:28:00 PM 33.2860 -82.6161 304° West  Level FlightAware Approximate
Sun 08:28:40 PM 33.1667 -82.7500 292° West 176 203 6,100  Level Atlanta TRACON
Sun 08:29:00 PM 33.3112 -82.6607 304° West  Level FlightAware Approximate
Sun 08:29:40 PM 33.1500 -82.8000 248° West 158 182 6,100  Level Atlanta TRACON
Sun 08:30:00 PM 33.3337 -82.7064 274° West  Level FlightAware Approximate
Sun 08:30:46 PM 33.1333 -82.8667 253° West 157 181 6,100  Level Atlanta TRACON
Sun 08:31:00 PM 33.3371 -82.7600 274° West  Level FlightAware Approximate
Sun 08:31:52 PM 33.1333 -82.9167 270° West 151 174 6,100  Level Atlanta TRACON
Sun 08:32:00 PM 33.3405 -82.8137 274° West  Level FlightAware Approximate
Sun 08:32:46 PM 33.1167 -82.9667 248° West 157 181 6,100  Level Atlanta TRACON
Sun 08:33:52 PM 33.1000 -83.0167 248° West 153 176 6,100  Level Atlanta TRACON
Sun 08:34:52 PM 33.1000 -83.0667 270° West 156 180 6,100  Level Atlanta TRACON
Sun 08:35:46 PM 33.0833 -83.1000 239° Southwest 154 177 6,100  Level Atlanta TRACON
Sun 08:36:46 PM 33.0667 -83.1500 248° West 155 178 6,100  Level Atlanta TRACON
Sun 08:37:46 PM 33.0833 -83.2000 292° West 163 188 6,100  Level Atlanta TRACON
Sun 08:38:52 PM 33.0833 -83.2667 270° West 161 185 6,100  Level Atlanta TRACON
Sun 08:39:52 PM 33.1167 -83.3000 320° Northwest 170 196 6,100  Level Atlanta TRACON
Sun 08:40:46 PM 33.1333 -83.3333 301° West 169 194 6,100  Level Atlanta TRACON
Sun 08:41:52 PM 33.1833 -83.3833 320° Northwest 169 194 6,100  Level Atlanta TRACON
Sun 08:42:46 PM 33.2000 -83.4167 301° West 166 191 6,100  Level Atlanta TRACON
Sun 08:43:52 PM 33.2333 -83.4500 320° Northwest 169 194 6,100  Level Atlanta TRACON
Sun 08:44:52 PM 33.2667 -83.5000 309° West 165 190 6,100  Level Atlanta TRACON
Sun 08:45:53 PM 33.3000 -83.5500 309° West 169 194 6,100  Level Atlanta TRACON
Sun 08:46:52 PM 33.3333 -83.5833 320° Northwest 165 190 6,100  Level Atlanta TRACON
Sun 08:47:52 PM 33.3667 -83.6333 309° West 166 191 6,100  Level Atlanta TRACON
Sun 08:48:52 PM 33.4000 -83.6667 320° Northwest 167 192 6,100  Level Atlanta TRACON
Sun 08:49:46 PM 33.4167 -83.7000 301° West 165 190 6,100 -158 Level Atlanta TRACON
Sun 08:50:46 PM 33.4667 -83.7167 344° North 174 200 5,800 -368 Descending Atlanta TRACON
Sun 08:51:40 PM 33.5167 -83.7333 344° North 191 220 5,400 -450 Descending Atlanta TRACON
Sun 08:52:46 PM 33.5667 -83.7500 344° North 189 217 4,900 -476 Descending Atlanta TRACON
Sun 08:53:46 PM 33.6167 -83.7667 344° North 184 212 4,400 -421 Descending Atlanta TRACON
Sun 08:54:40 PM 33.6667 -83.7833 344° North 181 208 4,100 -211 Descending Atlanta TRACON
Sun 08:55:40 PM 33.7000 -83.8167 320° Northwest 163 188 4,000 -50 Descending Atlanta TRACON
Sun 08:56:40 PM 33.7333 -83.8500 320° Northwest 154 177 4,000  Level Atlanta TRACON
Sun 08:57:40 PM 33.7667 -83.8833 320° Northwest 161 185 4,000  Level Atlanta TRACON
Sun 08:58:46 PM 33.8167 -83.9167 331° Northwest 164 189 4,000  Level Atlanta TRACON
Sun 08:59:40 PM 33.8333 -83.9500 301° West 147 169 4,000  Level Atlanta TRACON
Sun 09:00:40 PM 33.8500 -84.0000 292° West 151 174 4,000 -211 Level Atlanta TRACON
Sun 09:01:34 PM 33.8667 -84.0333 301° West 166 191 3,600 -421 Descending Atlanta TRACON
Sun 09:02:34 PM 33.8833 -84.1000 287° West 167 192 3,200 -286 Descending Atlanta TRACON
Sun 09:03:40 PM 33.9000 -84.1500 292° West 160 184 3,000 -95 Descending Atlanta TRACON
Sun 09:04:40 PM 33.9167 -84.1833 301° West 132 152 3,000 -100 Level Atlanta TRACON
Sun 09:05:40 PM 33.9333 -84.2333 292° West 139 160 2,800 -450 Descending Atlanta TRACON
Sun 09:06:40 PM 33.9333 -84.2667 270° West 137 158 2,100 -700 Descending Atlanta TRACON
Sun 09:07:40 PM 33.9000 -84.2833 203° Southwest 113 130 1,400 -700 Descending Atlanta TRACON
Sun 09:09:00 PM 33.8667 -84.3000 281° West  Level FlightAware Approximate
Sun 09:16:00 PM 33.8756 -84.3020 281° West  Level Estimated

Login

Don't have an account? Register now (free) for customized features, flight alerts, and more!